createdAt,value
2023-03-11T00:00:54.439Z,2.03
2023-03-11T00:03:25.155Z,2.01
2023-03-11T00:05:53.277Z,1.98
2023-03-11T00:08:22.796Z,1.90
2023-03-11T00:10:53.937Z,1.91
2023-03-11T00:13:21.012Z,1.93
2023-03-11T00:15:49.853Z,1.90
2023-03-11T00:18:17.817Z,1.86
2023-03-11T00:20:46.431Z,1.81
2023-03-11T00:23:14.660Z,1.77
2023-03-11T00:25:44.237Z,1.74
2023-03-11T00:28:11.215Z,1.72
2023-03-11T00:30:39.869Z,1.71
2023-03-11T00:33:07.302Z,1.70
2023-03-11T00:35:34.941Z,1.69
2023-03-11T00:38:07.046Z,1.63
2023-03-11T00:40:35.091Z,1.63
2023-03-11T00:43:02.707Z,1.58
2023-03-11T00:45:29.341Z,1.53
2023-03-11T00:47:56.646Z,1.56
2023-03-11T00:50:26.613Z,1.55
2023-03-11T00:52:53.633Z,1.54
2023-03-11T00:55:24.326Z,1.51
2023-03-11T00:57:56.449Z,1.49
2023-03-11T01:00:26.900Z,1.53
2023-03-11T01:02:54.856Z,1.50
2023-03-11T01:05:25.766Z,1.49
2023-03-11T01:07:52.300Z,1.48
2023-03-11T01:10:19.535Z,1.47
2023-03-11T01:12:46.128Z,1.50
2023-03-11T01:15:18.344Z,1.50
2023-03-11T01:17:45.062Z,1.54
2023-03-11T01:20:12.549Z,1.57
2023-03-11T01:22:39.126Z,1.54
2023-03-11T01:25:06.138Z,1.56
2023-03-11T01:27:32.666Z,1.60
2023-03-11T01:29:59.121Z,1.55
2023-03-11T01:32:25.623Z,1.56
2023-03-11T01:34:52.063Z,1.62
2023-03-11T01:37:20.158Z,1.54
2023-03-11T01:39:47.760Z,1.54
2023-03-11T01:42:14.196Z,1.57
2023-03-11T01:44:40.801Z,1.53
2023-03-11T01:47:10.433Z,1.57
2023-03-11T01:49:41.933Z,1.53
2023-03-11T01:52:09.653Z,1.47
2023-03-11T01:54:43.778Z,1.49
2023-03-11T01:57:13.624Z,1.46
2023-03-11T01:59:47.619Z,1.45
2023-03-11T02:02:35.738Z,1.44
2023-03-11T02:05:03.808Z,1.43
2023-03-11T02:07:30.353Z,1.41
2023-03-11T02:09:57.186Z,1.40
2023-03-11T02:12:24.365Z,1.43
2023-03-11T02:14:53.863Z,1.38
2023-03-11T02:17:20.826Z,1.41
2023-03-11T02:20:22.498Z,1.40
2023-03-11T02:22:49.522Z,1.40
2023-03-11T02:25:24.492Z,1.45
2023-03-11T02:27:53.710Z,1.43
2023-03-11T02:30:25.999Z,1.46
2023-03-11T02:32:53.423Z,1.46
2023-03-11T02:35:20.692Z,1.45
2023-03-11T02:38:07.684Z,1.51
2023-03-11T02:40:57.715Z,1.45
2023-03-11T02:43:46.836Z,1.43
2023-03-11T02:46:38.753Z,1.42
2023-03-11T02:49:25.338Z,1.41
2023-03-11T02:52:12.885Z,1.40
2023-03-11T02:54:39.415Z,1.34
2023-03-11T02:57:05.916Z,1.33
2023-03-11T02:59:32.594Z,1.31
2023-03-11T03:02:01.285Z,1.31
2023-03-11T03:04:28.476Z,1.28
2023-03-11T03:06:56.321Z,1.23
2023-03-11T03:09:22.834Z,1.25
2023-03-11T03:11:49.313Z,1.25
2023-03-11T03:14:15.932Z,1.27
2023-03-11T03:16:43.135Z,1.20
2023-03-11T03:19:09.743Z,1.20
2023-03-11T03:21:36.260Z,1.20
2023-03-11T03:24:03.770Z,1.23
2023-03-11T03:26:31.712Z,1.20
2023-03-11T03:28:58.344Z,1.16
2023-03-11T03:31:24.912Z,1.16
2023-03-11T03:33:51.783Z,1.16
2023-03-11T03:36:18.420Z,1.16
2023-03-11T03:38:54.509Z,1.11
2023-03-11T03:41:21.453Z,1.16
2023-03-11T03:43:48.069Z,1.12
2023-03-11T03:46:15.494Z,1.16
2023-03-11T03:48:46.376Z,1.08
2023-03-11T03:51:14.296Z,1.07
2023-03-11T03:53:47.778Z,1.12
2023-03-11T03:56:16.844Z,1.19
2023-03-11T03:58:44.589Z,1.17
2023-03-11T04:01:11.959Z,1.12
2023-03-11T04:03:39.994Z,1.21
2023-03-11T04:06:22.608Z,1.19
2023-03-11T04:08:55.112Z,1.14
2023-03-11T04:11:26.358Z,1.07
2023-03-11T04:13:53.029Z,1.11
2023-03-11T04:16:22.613Z,1.16
2023-03-11T04:18:51.393Z,1.11
2023-03-11T04:21:18.957Z,1.10
2023-03-11T04:23:47.262Z,1.11
2023-03-11T04:26:16.106Z,1.10
2023-03-11T04:28:42.879Z,1.05
2023-03-11T04:31:09.343Z,1.08
2023-03-11T04:33:36.160Z,1.08
2023-03-11T04:36:08.250Z,1.12
2023-03-11T04:38:36.589Z,1.13
2023-03-11T04:41:05.211Z,1.03
2023-03-11T04:43:33.419Z,1.02
2023-03-11T04:46:01.140Z,0.94
2023-03-11T04:48:28.188Z,0.92
2023-03-11T04:50:55.567Z,0.91
2023-03-11T04:53:23.749Z,0.85
2023-03-11T04:55:51.071Z,0.85
2023-03-11T04:58:17.636Z,0.79
2023-03-11T05:00:46.428Z,0.75
2023-03-11T05:03:14.830Z,0.74
2023-03-11T05:05:41.589Z,0.73
2023-03-11T05:08:08.775Z,0.72
2023-03-11T05:10:36.740Z,0.68
2023-03-11T05:13:05.940Z,0.70
2023-03-11T05:15:37.539Z,0.75
2023-03-11T05:18:05.475Z,0.73
2023-03-11T05:20:33.740Z,0.68
2023-03-11T05:23:00.452Z,0.65
2023-03-11T05:25:29.471Z,0.61
2023-03-11T05:27:56.460Z,0.65
2023-03-11T05:30:23.062Z,0.72
2023-03-11T05:32:50.113Z,0.76
2023-03-11T05:35:17.491Z,0.64
2023-03-11T05:37:44.310Z,0.61
2023-03-11T05:40:12.174Z,0.68
2023-03-11T05:42:41.368Z,0.76
2023-03-11T05:45:09.504Z,0.81
2023-03-11T05:47:37.617Z,0.83
2023-03-11T05:50:05.730Z,0.75
2023-03-11T05:52:33.918Z,0.72
2023-03-11T05:55:01.128Z,0.65
2023-03-11T05:57:30.327Z,0.62
2023-03-11T05:59:57.699Z,0.61
2023-03-11T06:02:24.516Z,0.61
2023-03-11T06:04:51.221Z,0.58
2023-03-11T06:07:18.078Z,0.59
2023-03-11T06:09:50.144Z,0.56
2023-03-11T06:12:18.453Z,0.60
2023-03-11T06:15:12.662Z,0.56
2023-03-11T06:17:40.244Z,0.54
2023-03-11T06:20:09.695Z,0.59
2023-03-11T06:22:39.041Z,0.50
2023-03-11T06:25:07.919Z,0.57
2023-03-11T06:27:34.495Z,0.58
2023-03-11T06:30:01.596Z,0.64
2023-03-11T06:32:30.716Z,0.56
2023-03-11T06:34:57.300Z,0.55
2023-03-11T06:37:25.688Z,0.60
2023-03-11T06:39:53.573Z,0.60
2023-03-11T06:42:24.133Z,0.64
2023-03-11T06:44:52.705Z,0.73
2023-03-11T06:47:19.973Z,0.75
2023-03-11T06:49:47.958Z,0.77
2023-03-11T06:52:15.548Z,0.67
2023-03-11T06:54:42.421Z,0.71
2023-03-11T06:57:09.775Z,0.71
2023-03-11T06:59:37.524Z,0.71
2023-03-11T07:02:06.144Z,0.79
2023-03-11T07:04:33.417Z,0.75
2023-03-11T07:07:00.007Z,0.80
2023-03-11T07:09:27.837Z,0.89
2023-03-11T07:11:55.375Z,0.84
2023-03-11T07:14:28.560Z,0.88
2023-03-11T07:16:56.408Z,0.99
2023-03-11T07:19:28.946Z,0.92
2023-03-11T07:21:55.438Z,0.97
2023-03-11T07:24:22.011Z,1.10
2023-03-11T07:26:48.575Z,0.92
2023-03-11T07:29:15.179Z,0.91
2023-03-11T07:31:41.996Z,0.99
2023-03-11T07:34:11.824Z,0.99
2023-03-11T07:36:42.268Z,1.07
2023-03-11T07:39:15.220Z,1.10
2023-03-11T07:41:42.115Z,1.15
2023-03-11T07:44:11.350Z,1.19
2023-03-11T07:46:37.888Z,1.26
2023-03-11T07:49:04.622Z,1.26
2023-03-11T07:51:33.878Z,1.23
2023-03-11T07:54:01.277Z,1.34
2023-03-11T07:56:31.510Z,1.31
2023-03-11T07:58:59.644Z,1.35
2023-03-11T08:01:31.502Z,1.46
2023-03-11T08:03:59.275Z,1.47
2023-03-11T08:06:29.430Z,1.33
2023-03-11T08:08:55.960Z,1.24
2023-03-11T08:11:22.506Z,1.17
2023-03-11T08:13:49.642Z,1.40
2023-03-11T08:16:18.948Z,1.49
2023-03-11T08:18:49.913Z,1.44
2023-03-11T08:21:29.018Z,1.47
2023-03-11T08:24:01.030Z,1.80
2023-03-11T08:26:28.382Z,1.96
2023-03-11T08:28:56.183Z,2.13
2023-03-11T08:31:29.399Z,2.53
2023-03-11T08:34:05.893Z,2.22
2023-03-11T08:36:33.202Z,2.52
2023-03-11T08:38:59.824Z,2.99
2023-03-11T08:41:26.853Z,2.98
2023-03-11T08:43:53.494Z,3.12
2023-03-11T08:46:27.594Z,3.20
2023-03-11T08:48:55.181Z,3.26
2023-03-11T08:51:22.423Z,3.44
2023-03-11T08:53:48.926Z,3.78
2023-03-11T08:56:15.411Z,4.17
2023-03-11T08:58:42.060Z,4.27
2023-03-11T09:01:11.339Z,4.30
2023-03-11T09:03:38.540Z,4.43
2023-03-11T09:06:08.310Z,4.92
2023-03-11T09:08:35.319Z,4.95
2023-03-11T09:11:02.103Z,5.15
2023-03-11T09:13:29.069Z,4.57
2023-03-11T09:15:56.028Z,4.41
2023-03-11T09:18:22.797Z,4.52
2023-03-11T09:20:49.456Z,4.47
2023-03-11T09:23:17.563Z,4.47
2023-03-11T09:25:44.464Z,4.09
2023-03-11T09:28:10.948Z,4.40
2023-03-11T09:30:37.485Z,4.40
2023-03-11T09:33:04.185Z,4.56
2023-03-11T09:35:30.667Z,4.98
2023-03-11T09:37:57.299Z,5.61
2023-03-11T09:40:27.165Z,5.07
2023-03-11T09:43:11.477Z,4.71
2023-03-11T09:45:50.672Z,4.77
2023-03-11T09:48:40.191Z,4.88
2023-03-11T09:51:27.176Z,5.44
2023-03-11T09:54:09.287Z,5.41
2023-03-11T09:56:37.813Z,5.32
2023-03-11T09:59:09.261Z,5.36
2023-03-11T10:01:42.777Z,5.49
2023-03-11T10:04:23.848Z,5.49
2023-03-11T10:06:50.469Z,4.52
2023-03-11T10:09:37.603Z,4.59
2023-03-11T10:12:08.899Z,5.03
2023-03-11T10:14:51.435Z,5.21
2023-03-11T10:17:46.252Z,6.25
2023-03-11T10:20:21.782Z,6.78
2023-03-11T10:23:11.668Z,6.45
2023-03-11T10:26:01.036Z,6.78
2023-03-11T10:28:33.302Z,5.88
2023-03-11T10:31:18.579Z,5.90
2023-03-11T10:33:53.980Z,6.22
2023-03-11T10:36:27.151Z,6.80
2023-03-11T10:38:55.535Z,7.29
2023-03-11T10:41:30.691Z,7.74
2023-03-11T10:44:06.102Z,7.22
2023-03-11T10:46:32.716Z,7.56
2023-03-11T10:48:59.170Z,7.21
2023-03-11T10:51:35.296Z,7.24
2023-03-11T10:54:03.516Z,7.52
2023-03-11T10:56:41.303Z,8.05
2023-03-11T10:59:33.627Z,7.89
2023-03-11T11:02:30.042Z,7.53
2023-03-11T11:05:15.543Z,7.08
2023-03-11T11:07:43.389Z,7.33
2023-03-11T11:10:16.186Z,7.04
2023-03-11T11:12:55.845Z,6.99
2023-03-11T11:15:34.579Z,7.13
2023-03-11T11:18:04.822Z,6.12
2023-03-11T11:20:33.176Z,5.71
2023-03-11T11:23:02.246Z,5.25
2023-03-11T11:25:43.708Z,5.45
2023-03-11T11:28:21.351Z,4.95
2023-03-11T11:30:56.793Z,5.49
2023-03-11T11:33:39.251Z,5.89
2023-03-11T11:36:11.958Z,6.99
2023-03-11T11:38:38.487Z,6.71
2023-03-11T11:41:05.901Z,6.45
2023-03-11T11:43:48.848Z,7.06
2023-03-11T11:46:23.043Z,6.88
2023-03-11T11:48:52.987Z,6.42
2023-03-11T11:51:23.962Z,6.44
2023-03-11T11:54:08.698Z,6.63
2023-03-11T11:56:35.219Z,6.71
2023-03-11T11:59:01.660Z,6.46
2023-03-11T12:01:39.887Z,6.41
2023-03-11T12:04:25.294Z,6.52
2023-03-11T12:07:02.432Z,6.87
2023-03-11T12:09:52.952Z,6.97
2023-03-11T12:12:30.062Z,7.45
2023-03-11T12:15:20.790Z,7.61
2023-03-11T12:17:49.313Z,8.65
2023-03-11T12:20:24.171Z,8.50
2023-03-11T12:23:18.529Z,8.31
2023-03-11T12:26:07.652Z,7.81
2023-03-11T12:28:37.029Z,8.04
2023-03-11T12:31:08.911Z,7.66
2023-03-11T12:33:46.380Z,7.96
2023-03-11T12:36:31.188Z,7.66
2023-03-11T12:38:59.891Z,7.60
2023-03-11T12:41:27.583Z,7.66
2023-03-11T12:43:54.051Z,7.90
2023-03-11T12:46:21.732Z,7.77
2023-03-11T12:48:54.222Z,8.77
2023-03-11T12:51:26.595Z,8.91
2023-03-11T12:53:56.879Z,8.32
2023-03-11T12:56:26.310Z,7.82
2023-03-11T12:59:14.653Z,7.70
2023-03-11T13:01:50.724Z,7.44
2023-03-11T13:04:30.105Z,7.52
2023-03-11T13:07:06.756Z,7.83
2023-03-11T13:09:33.353Z,7.99
2023-03-11T13:11:59.923Z,8.08
2023-03-11T13:14:31.908Z,7.37
2023-03-11T13:17:30.825Z,7.66
2023-03-11T13:19:58.639Z,7.96
2023-03-11T13:23:03.891Z,7.71
2023-03-11T13:25:53.833Z,7.77
2023-03-11T13:28:47.235Z,7.96
2023-03-11T13:31:32.792Z,7.55
2023-03-11T13:34:14.456Z,6.85
2023-03-11T13:36:56.539Z,6.78
2023-03-11T13:40:13.900Z,6.75
2023-03-11T13:42:45.007Z,6.54
2023-03-11T13:45:36.165Z,6.92
2023-03-11T13:48:24.787Z,6.48
2023-03-11T13:50:55.855Z,6.84
2023-03-11T13:53:42.195Z,6.97
2023-03-11T13:56:25.641Z,6.79
2023-03-11T13:58:52.314Z,6.61
2023-03-11T14:01:19.445Z,6.31
2023-03-11T14:03:47.941Z,6.48
2023-03-11T14:06:20.174Z,6.76
2023-03-11T14:08:54.900Z,7.00
2023-03-11T14:11:27.135Z,6.76
2023-03-11T14:13:54.166Z,6.74
2023-03-11T14:16:43.862Z,6.54
2023-03-11T14:19:18.458Z,7.02
2023-03-11T14:21:47.853Z,6.67
2023-03-11T14:24:25.120Z,6.83
2023-03-11T14:26:56.059Z,6.82
2023-03-11T14:29:33.939Z,6.99
2023-03-11T14:32:00.883Z,7.17
2023-03-11T14:34:28.980Z,7.20
2023-03-11T14:36:59.703Z,6.61
2023-03-11T14:39:33.733Z,6.69
2023-03-11T14:42:38.721Z,6.83
2023-03-11T14:45:17.358Z,6.73
2023-03-11T14:47:49.655Z,6.67
2023-03-11T14:50:27.166Z,6.41
2023-03-11T14:53:06.948Z,6.23
2023-03-11T14:55:40.184Z,6.27
2023-03-11T14:58:29.300Z,6.57
2023-03-11T15:01:03.574Z,6.78
2023-03-11T15:03:33.586Z,6.67
2023-03-11T15:06:16.716Z,6.46
2023-03-11T15:08:59.928Z,6.69
2023-03-11T15:11:28.488Z,6.83
2023-03-11T15:14:14.816Z,6.74
2023-03-11T15:16:41.358Z,7.49
2023-03-11T15:19:31.518Z,7.57
2023-03-11T15:22:02.316Z,8.17
2023-03-11T15:24:31.881Z,8.03
2023-03-11T15:27:01.289Z,7.66
2023-03-11T15:29:30.375Z,7.36
2023-03-11T15:31:57.404Z,7.22
2023-03-11T15:34:26.160Z,7.36
2023-03-11T15:36:57.491Z,7.03
2023-03-11T15:39:30.124Z,7.10
2023-03-11T15:42:00.161Z,7.28
2023-03-11T15:44:42.832Z,7.18
2023-03-11T15:47:15.289Z,7.93
2023-03-11T15:49:42.207Z,8.30
2023-03-11T15:52:08.885Z,8.29
2023-03-11T15:54:35.679Z,7.95
2023-03-11T15:57:05.965Z,7.09
2023-03-11T15:59:33.602Z,7.05
2023-03-11T16:02:00.293Z,7.82
2023-03-11T16:04:27.186Z,7.77
2023-03-11T16:07:06.896Z,7.08
2023-03-11T16:09:34.654Z,6.59
2023-03-11T16:12:02.379Z,6.36
2023-03-11T16:14:28.857Z,6.57
2023-03-11T16:16:55.497Z,6.79
2023-03-11T16:19:21.988Z,6.71
2023-03-11T16:22:07.302Z,6.53
2023-03-11T16:24:54.436Z,6.54
2023-03-11T16:27:21.160Z,6.72
2023-03-11T16:29:48.094Z,6.42
2023-03-11T16:32:14.822Z,6.35
2023-03-11T16:34:41.679Z,6.42
2023-03-11T16:37:08.903Z,6.39
2023-03-11T16:39:35.495Z,6.34
2023-03-11T16:42:01.916Z,6.21
2023-03-11T16:44:28.589Z,6.14
2023-03-11T16:46:55.228Z,6.16
2023-03-11T16:49:21.758Z,5.97
2023-03-11T16:51:48.359Z,5.77
2023-03-11T16:54:15.010Z,5.87
2023-03-11T16:56:41.898Z,5.79
2023-03-11T16:59:09.066Z,5.68
2023-03-11T17:01:38.619Z,5.63
2023-03-11T17:04:06.696Z,5.51
2023-03-11T17:06:33.959Z,5.44
2023-03-11T17:09:00.782Z,5.31
2023-03-11T17:11:29.444Z,5.26
2023-03-11T17:14:10.128Z,5.34
2023-03-11T17:16:42.445Z,5.32
2023-03-11T17:19:09.023Z,5.16
2023-03-11T17:21:35.455Z,5.07
2023-03-11T17:24:02.142Z,5.10
2023-03-11T17:26:30.909Z,4.94
2023-03-11T17:28:57.525Z,4.81
2023-03-11T17:31:24.294Z,4.87
2023-03-11T17:33:50.827Z,4.74
2023-03-11T17:36:18.565Z,4.78
2023-03-11T17:38:46.738Z,4.64
2023-03-11T17:41:16.162Z,4.65
2023-03-11T17:43:43.979Z,4.48
2023-03-11T17:46:16.444Z,4.42
2023-03-11T17:48:44.692Z,4.44
2023-03-11T17:51:20.952Z,4.38
2023-03-11T17:53:48.979Z,4.22
2023-03-11T17:56:18.056Z,4.21
2023-03-11T17:58:45.039Z,4.16
2023-03-11T18:01:20.132Z,4.11
2023-03-11T18:03:47.110Z,4.12
2023-03-11T18:06:14.320Z,4.01
2023-03-11T18:08:41.368Z,4.04
2023-03-11T18:11:11.837Z,3.98
2023-03-11T18:13:38.814Z,3.81
2023-03-11T18:16:12.290Z,3.76
2023-03-11T18:18:39.584Z,3.68
2023-03-11T18:21:08.796Z,3.50
2023-03-11T18:23:35.914Z,3.53
2023-03-11T18:26:04.722Z,3.50
2023-03-11T18:28:31.991Z,3.39
2023-03-11T18:31:09.241Z,3.35
2023-03-11T18:33:36.755Z,3.32
2023-03-11T18:36:14.961Z,3.23
2023-03-11T18:38:41.929Z,3.11
2023-03-11T18:41:08.535Z,3.10
2023-03-11T18:43:35.797Z,3.16
2023-03-11T18:46:06.574Z,2.94
2023-03-11T18:48:33.128Z,2.97
2023-03-11T18:50:59.643Z,2.84
2023-03-11T18:53:26.199Z,2.70
2023-03-11T18:55:58.363Z,2.71
2023-03-11T18:58:24.912Z,2.65
2023-03-11T19:00:51.551Z,2.53
2023-03-11T19:03:18.112Z,2.54
2023-03-11T19:05:50.735Z,2.44
2023-03-11T19:08:17.709Z,2.42
2023-03-11T19:11:15.273Z,2.35
2023-03-11T19:14:02.121Z,2.23
2023-03-11T19:16:49.007Z,2.13
2023-03-11T19:19:35.883Z,1.99
2023-03-11T19:22:22.609Z,1.93
2023-03-11T19:25:09.691Z,1.97
2023-03-11T19:27:57.073Z,1.96
2023-03-11T19:30:44.204Z,1.84
2023-03-11T19:33:31.078Z,1.80
2023-03-11T19:36:18.170Z,1.68
2023-03-11T19:39:05.004Z,1.57
2023-03-11T19:41:36.090Z,1.56
2023-03-11T19:44:04.270Z,1.53
2023-03-11T19:46:34.226Z,1.58
2023-03-11T19:49:19.493Z,1.53
2023-03-11T19:51:50.361Z,1.43
2023-03-11T19:54:18.247Z,1.38
2023-03-11T19:56:45.444Z,1.30
2023-03-11T19:59:12.300Z,1.29
2023-03-11T20:01:38.732Z,1.27
2023-03-11T20:04:05.452Z,1.26
2023-03-11T20:06:32.140Z,1.10
2023-03-11T20:08:58.714Z,1.14
2023-03-11T20:11:25.177Z,1.04
2023-03-11T20:13:51.708Z,0.94
2023-03-11T20:16:19.392Z,0.86
2023-03-11T20:18:49.446Z,0.77
2023-03-11T20:21:16.053Z,0.81
2023-03-11T20:23:42.509Z,0.75
2023-03-11T20:26:14.480Z,0.77
2023-03-11T20:28:41.285Z,0.74
2023-03-11T20:31:16.805Z,0.61
2023-03-11T20:33:43.787Z,0.47
2023-03-11T20:36:14.314Z,0.54
2023-03-11T20:38:41.890Z,0.53
2023-03-11T20:41:09.661Z,0.47
2023-03-11T20:43:40.219Z,0.50
2023-03-11T20:46:07.556Z,0.53
2023-03-11T20:48:35.319Z,0.41
2023-03-11T20:51:03.505Z,0.22
2023-03-11T20:53:31.138Z,0.10
2023-03-11T20:55:58.838Z,0.25
2023-03-11T20:58:25.589Z,0.28
2023-03-11T21:00:52.430Z,0.22
2023-03-11T21:03:18.996Z,0.16
2023-03-11T21:05:45.582Z,0.08
2023-03-11T21:08:13.090Z,0.24
2023-03-11T21:10:39.832Z,0.07
2023-03-11T21:13:06.976Z,0.18
2023-03-11T21:15:36.255Z,0.11
2023-03-11T21:18:03.582Z,0.18
2023-03-11T21:20:30.059Z,0.08
2023-03-11T21:22:56.769Z,0.14
2023-03-11T21:25:23.303Z,0.08
2023-03-11T21:27:49.813Z,0.03
2023-03-11T21:30:16.450Z,-0.05
2023-03-11T21:32:43.108Z,-0.04
2023-03-11T21:35:09.732Z,-0.03
2023-03-11T21:37:36.633Z,-0.18
2023-03-11T21:40:04.036Z,-0.18
2023-03-11T21:42:30.609Z,-0.16
2023-03-11T21:44:57.380Z,-0.19
2023-03-11T21:47:23.975Z,-0.08
2023-03-11T21:49:50.704Z,-0.10
2023-03-11T21:52:17.279Z,-0.10
2023-03-11T21:54:44.005Z,-0.21
2023-03-11T21:57:11.505Z,-0.11
2023-03-11T21:59:38.273Z,-0.06
2023-03-11T22:02:04.897Z,-0.13
2023-03-11T22:04:32.023Z,-0.07
2023-03-11T22:06:58.715Z,-0.14
2023-03-11T22:09:26.309Z,-0.10
2023-03-11T22:11:53.494Z,-0.36
2023-03-11T22:14:20.212Z,-0.24
2023-03-11T22:16:46.786Z,-0.17
2023-03-11T22:19:13.651Z,-0.15
2023-03-11T22:21:40.465Z,-0.13
2023-03-11T22:24:07.103Z,-0.40
2023-03-11T22:26:33.589Z,-0.33
2023-03-11T22:29:01.821Z,-0.41
2023-03-11T22:31:29.753Z,-0.25
2023-03-11T22:33:57.062Z,-0.27
2023-03-11T22:36:23.596Z,-0.23
2023-03-11T22:38:50.250Z,-0.25
2023-03-11T22:41:19.220Z,-0.30
2023-03-11T22:43:45.945Z,-0.25
2023-03-11T22:46:12.706Z,-0.30
2023-03-11T22:48:39.437Z,-0.27
2023-03-11T22:51:06.120Z,-0.38
2023-03-11T22:53:32.796Z,-0.49
2023-03-11T22:55:59.345Z,-0.53
2023-03-11T22:58:26.073Z,-0.49
2023-03-11T23:00:53.225Z,-0.45
2023-03-11T23:03:19.891Z,-0.70
2023-03-11T23:05:46.936Z,-0.71
2023-03-11T23:08:15.318Z,-0.76
2023-03-11T23:10:44.303Z,-0.71
2023-03-11T23:13:11.855Z,-0.68
2023-03-11T23:15:43.266Z,-0.74
2023-03-11T23:18:10.785Z,-0.64
2023-03-11T23:20:39.362Z,-0.68
2023-03-11T23:23:06.436Z,-0.79
2023-03-11T23:25:33.909Z,-0.72
2023-03-11T23:28:02.312Z,-0.75
2023-03-11T23:30:29.421Z,-0.70
2023-03-11T23:32:57.226Z,-0.65
2023-03-11T23:35:24.762Z,-0.64
2023-03-11T23:37:51.731Z,-0.71
2023-03-11T23:40:18.849Z,-0.75
2023-03-11T23:42:45.354Z,-0.80
2023-03-11T23:45:12.149Z,-0.84
2023-03-11T23:47:38.736Z,-0.85
2023-03-11T23:50:06.241Z,-0.81
2023-03-11T23:52:33.396Z,-0.76
2023-03-11T23:55:00.092Z,-0.84
2023-03-11T23:57:26.755Z,-0.79
2023-03-11T23:59:53.530Z,-0.89
